createdAt,value
2019-01-08T00:02:11.987Z,87.94
2019-01-08T00:07:22.191Z,86.97
2019-01-08T00:12:37.348Z,87.61
2019-01-08T00:17:45.925Z,87.34
2019-01-08T00:22:53.861Z,87.82
2019-01-08T00:28:04.071Z,86.89
2019-01-08T00:33:12.935Z,86.26
2019-01-08T00:38:26.404Z,85.97
2019-01-08T00:43:33.452Z,85.81
2019-01-08T00:48:41.379Z,86.84
2019-01-08T00:53:49.236Z,85.53
2019-01-08T00:58:57.926Z,86.06
2019-01-08T01:04:03.352Z,86.52
2019-01-08T01:09:09.936Z,87.39
2019-01-08T01:14:16.290Z,86.53
2019-01-08T01:19:22.980Z,86.90
2019-01-08T01:24:30.370Z,87.09
2019-01-08T01:29:39.054Z,87.46
2019-01-08T01:34:45.912Z,85.46
2019-01-08T01:39:55.452Z,86.75
2019-01-08T01:45:04.954Z,86.21
2019-01-08T01:50:13.613Z,85.75
2019-01-08T01:55:22.434Z,85.82
2019-01-08T02:00:41.695Z,86.19
2019-01-08T02:05:51.053Z,86.45
2019-01-08T02:11:00.127Z,86.97
2019-01-08T02:16:10.093Z,85.21
2019-01-08T02:21:20.712Z,86.83
2019-01-08T02:26:29.092Z,86.25
2019-01-08T02:31:38.857Z,86.62
2019-01-08T02:36:51.366Z,85.35
2019-01-08T02:42:02.590Z,86.09
2019-01-08T02:47:10.594Z,85.68
2019-01-08T02:52:23.180Z,85.80
2019-01-08T02:57:32.837Z,85.59
2019-01-08T03:02:40.991Z,85.90
2019-01-08T03:07:53.412Z,86.74
2019-01-08T03:13:07.726Z,85.62
2019-01-08T03:18:20.909Z,86.80
2019-01-08T03:23:34.308Z,86.38
2019-01-08T03:28:46.249Z,86.45
2019-01-08T03:33:55.403Z,86.88
2019-01-08T03:39:07.042Z,86.13
2019-01-08T03:44:15.432Z,86.64
2019-01-08T03:49:25.157Z,86.88
2019-01-08T03:54:33.523Z,87.01
2019-01-08T03:59:44.162Z,86.46
2019-01-08T04:04:55.011Z,86.04
2019-01-08T04:10:06.594Z,86.04
2019-01-08T04:15:17.315Z,85.28
2019-01-08T04:20:26.516Z,85.07
2019-01-08T04:25:37.253Z,85.26
2019-01-08T04:30:55.699Z,85.52
2019-01-08T04:36:06.409Z,84.93
2019-01-08T04:41:17.026Z,85.17
2019-01-08T04:46:29.478Z,86.37
2019-01-08T04:51:45.239Z,86.92
2019-01-08T04:56:57.849Z,86.58
2019-01-08T05:02:09.472Z,85.45
2019-01-08T05:07:17.860Z,84.77
2019-01-08T05:12:26.695Z,83.97
2019-01-08T05:17:36.597Z,82.95
2019-01-08T05:22:47.291Z,84.09
2019-01-08T05:27:55.815Z,84.09
2019-01-08T05:33:08.296Z,84.83
2019-01-08T05:38:15.528Z,85.68
2019-01-08T05:43:24.615Z,87.46
2019-01-08T05:48:36.994Z,88.19
2019-01-08T05:53:49.218Z,87.77
2019-01-08T05:58:59.940Z,88.05
2019-01-08T06:04:12.438Z,86.95
2019-01-08T06:10:22.343Z,87.84
2019-01-08T06:15:29.797Z,87.80
2019-01-08T06:20:41.290Z,88.26
2019-01-08T06:25:55.503Z,88.26
2019-01-08T06:31:14.298Z,86.31
2019-01-08T06:36:26.251Z,86.31
2019-01-08T06:41:34.586Z,85.71
2019-01-08T06:46:45.597Z,86.33
2019-01-08T06:51:53.863Z,85.50
2019-01-08T06:57:02.716Z,86.01
2019-01-08T07:02:09.935Z,86.42
2019-01-08T07:07:16.600Z,85.69
2019-01-08T07:12:29.990Z,85.04
2019-01-08T07:17:44.258Z,86.94
2019-01-08T07:22:53.399Z,85.41
2019-01-08T07:28:01.643Z,85.44
2019-01-08T07:33:10.905Z,84.67
2019-01-08T07:38:22.404Z,83.79
2019-01-08T07:43:34.864Z,84.41
2019-01-08T07:48:44.578Z,85.37
2019-01-08T07:53:52.130Z,85.63
2019-01-08T07:59:02.474Z,86.47
2019-01-08T08:04:16.571Z,85.88
2019-01-08T08:09:26.895Z,85.64
2019-01-08T08:14:38.506Z,86.12
2019-01-08T08:19:52.648Z,85.60
2019-01-08T08:25:09.608Z,85.09
2019-01-08T08:30:19.496Z,85.05
2019-01-08T08:35:31.844Z,86.66
2019-01-08T08:40:42.206Z,87.95
2019-01-08T08:45:56.869Z,88.83
2019-01-08T08:51:06.242Z,88.83
2019-01-08T08:56:14.803Z,89.10
2019-01-08T09:01:27.331Z,88.85
2019-01-08T09:06:38.020Z,87.85
2019-01-08T09:11:46.831Z,86.66
2019-01-08T09:16:57.561Z,86.43
2019-01-08T09:22:08.166Z,85.96
2019-01-08T09:27:20.579Z,84.13
2019-01-08T09:32:31.267Z,85.18
2019-01-08T09:37:41.075Z,83.48
2019-01-08T09:42:49.365Z,83.51
2019-01-08T09:48:00.980Z,82.55
2019-01-08T09:53:11.414Z,84.29
2019-01-08T09:58:25.731Z,84.94
2019-01-08T10:03:38.180Z,85.33
2019-01-08T10:08:48.323Z,84.89
2019-01-08T10:13:57.765Z,84.87
2019-01-08T10:19:07.495Z,84.09
2019-01-08T10:24:15.768Z,83.00
2019-01-08T10:29:24.113Z,80.78
2019-01-08T10:34:30.815Z,80.76
2019-01-08T10:39:39.654Z,79.39
2019-01-08T10:44:48.529Z,80.39
2019-01-08T10:49:58.277Z,81.12
2019-01-08T10:55:12.133Z,82.39
2019-01-08T11:00:23.636Z,83.40
2019-01-08T11:05:31.065Z,84.19
2019-01-08T11:10:40.100Z,83.73
2019-01-08T11:15:52.514Z,84.18
2019-01-08T11:21:01.053Z,83.82
2019-01-08T11:26:08.968Z,85.11
2019-01-08T11:31:19.940Z,85.89
2019-01-08T11:36:27.640Z,85.03
2019-01-08T11:41:38.933Z,84.13
2019-01-08T11:46:48.857Z,84.19
2019-01-08T11:51:59.113Z,81.88
2019-01-08T11:57:09.539Z,79.57
2019-01-08T12:02:19.296Z,79.37
2019-01-08T12:07:31.343Z,77.56
2019-01-08T12:12:47.871Z,76.85
2019-01-08T12:17:56.072Z,76.84
2019-01-08T12:23:03.871Z,75.78
2019-01-08T12:28:11.874Z,78.37
2019-01-08T12:33:19.008Z,82.28
2019-01-08T12:38:26.601Z,84.21
2019-01-08T12:43:36.102Z,83.27
2019-01-08T12:48:43.045Z,83.62
2019-01-08T12:53:53.442Z,83.77
2019-01-08T12:59:00.985Z,83.33
2019-01-08T13:04:10.476Z,82.08
2019-01-08T13:09:19.973Z,79.91
2019-01-08T13:14:28.099Z,79.00
2019-01-08T13:19:36.002Z,78.79
2019-01-08T13:24:43.978Z,79.76
2019-01-08T13:29:50.235Z,80.39
2019-01-08T13:34:57.049Z,78.97
2019-01-08T13:40:03.501Z,78.45
2019-01-08T13:45:14.911Z,77.23
2019-01-08T13:50:23.553Z,71.93
2019-01-08T13:55:31.780Z,73.96
2019-01-08T14:00:40.709Z,75.22
2019-01-08T14:05:48.687Z,76.13
2019-01-08T14:10:58.408Z,76.09
2019-01-08T14:16:07.937Z,77.23
2019-01-08T14:21:15.418Z,75.38
2019-01-08T14:26:23.157Z,75.56
2019-01-08T14:31:32.068Z,73.65
2019-01-08T14:36:40.707Z,72.65
2019-01-08T14:41:48.896Z,73.00
2019-01-08T14:46:57.597Z,72.38
2019-01-08T14:52:08.133Z,73.06
2019-01-08T14:57:20.468Z,73.27
2019-01-08T15:02:29.789Z,74.25
2019-01-08T15:07:41.253Z,74.97
2019-01-08T15:12:50.404Z,74.46
2019-01-08T15:18:02.055Z,74.59
2019-01-08T15:23:15.683Z,73.90
2019-01-08T15:28:27.296Z,74.14
2019-01-08T15:33:37.071Z,74.67
2019-01-08T15:38:45.867Z,74.39
2019-01-08T15:43:58.344Z,74.39
2019-01-08T15:49:09.945Z,73.98
2019-01-08T15:54:17.348Z,74.27
2019-01-08T15:59:29.730Z,74.14
2019-01-08T16:04:42.274Z,74.80
2019-01-08T16:09:54.692Z,74.56
2019-01-08T16:15:03.589Z,74.46
2019-01-08T16:20:13.504Z,74.03
2019-01-08T16:25:22.964Z,74.26
2019-01-08T16:30:33.735Z,74.00
2019-01-08T16:35:46.084Z,73.18
2019-01-08T16:40:56.120Z,72.84
2019-01-08T16:46:06.853Z,72.46
2019-01-08T16:51:17.478Z,72.53
2019-01-08T16:56:30.893Z,73.18
2019-01-08T17:01:43.368Z,72.92
2019-01-08T17:06:56.839Z,73.48
2019-01-08T17:12:06.126Z,74.23
2019-01-08T17:17:18.573Z,74.77
2019-01-08T17:22:26.495Z,75.01
2019-01-08T17:27:36.518Z,75.58
2019-01-08T17:32:45.405Z,75.94
2019-01-08T17:37:55.202Z,76.02
2019-01-08T17:43:04.966Z,76.41
2019-01-08T17:48:18.370Z,76.04
2019-01-08T17:53:26.738Z,75.26
2019-01-08T17:58:49.572Z,74.56
2019-01-08T18:03:59.418Z,74.73
2019-01-08T18:14:43.270Z,75.31
2019-01-08T18:19:52.434Z,75.80
2019-01-08T18:24:59.607Z,76.45
2019-01-08T18:30:10.283Z,76.48
2019-01-08T18:35:24.516Z,76.73
2019-01-08T18:40:32.739Z,77.32
2019-01-08T18:45:43.140Z,76.62
2019-01-08T18:50:50.742Z,77.08
2019-01-08T18:55:58.009Z,77.18
2019-01-08T19:01:07.800Z,77.73
2019-01-08T19:06:17.987Z,76.55
2019-01-08T19:11:25.532Z,77.18
2019-01-08T19:16:34.602Z,78.23
2019-01-08T19:21:45.309Z,77.69
2019-01-08T19:26:59.574Z,79.75
2019-01-08T19:32:09.287Z,80.66
2019-01-08T19:37:19.010Z,78.98
2019-01-08T19:42:29.155Z,78.98
2019-01-08T19:47:40.896Z,79.94
2019-01-08T19:52:54.355Z,82.17
2019-01-08T19:58:06.809Z,83.56
2019-01-08T20:03:16.554Z,85.27
2019-01-08T20:08:30.583Z,86.47
2019-01-08T20:13:38.890Z,85.87
2019-01-08T20:18:49.860Z,85.97
2019-01-08T20:24:06.393Z,86.14
2019-01-08T20:29:13.187Z,86.92
2019-01-08T20:34:26.633Z,87.14
2019-01-08T20:39:33.827Z,87.54
2019-01-08T20:44:41.829Z,88.43
2019-01-08T20:49:51.278Z,88.56
2019-01-08T20:55:03.391Z,88.90
2019-01-08T21:00:10.837Z,88.08
2019-01-08T21:05:19.827Z,88.05
2019-01-08T21:10:28.949Z,88.30
2019-01-08T21:15:37.151Z,88.31
2019-01-08T21:20:45.347Z,88.58
2019-01-08T21:26:01.635Z,87.57
2019-01-08T21:31:10.691Z,87.30
2019-01-08T21:36:19.294Z,87.99
2019-01-08T21:41:28.855Z,88.61
2019-01-08T21:46:37.412Z,88.83
2019-01-08T21:51:45.991Z,88.70
2019-01-08T21:56:57.580Z,88.88
2019-01-08T22:02:11.255Z,88.25
2019-01-08T22:07:19.658Z,87.98
2019-01-08T22:12:32.102Z,88.04
2019-01-08T22:17:41.872Z,88.32
2019-01-08T22:22:53.050Z,88.62
2019-01-08T22:28:04.295Z,88.48
2019-01-08T22:33:17.864Z,88.29
2019-01-08T22:38:28.103Z,88.33
2019-01-08T22:43:37.193Z,87.80
2019-01-08T22:48:52.997Z,87.80
2019-01-08T22:54:06.402Z,87.16
2019-01-08T22:59:18.404Z,87.79
2019-01-08T23:04:29.168Z,87.95
2019-01-08T23:09:39.173Z,87.74
2019-01-08T23:14:48.932Z,87.33
2019-01-08T23:20:02.403Z,86.85
2019-01-08T23:25:15.790Z,86.38
2019-01-08T23:30:25.479Z,86.23
2019-01-08T23:35:34.436Z,86.14
2019-01-08T23:40:45.998Z,85.67
2019-01-08T23:45:58.552Z,84.89
2019-01-08T23:51:11.046Z,84.80
2019-01-08T23:56:23.084Z,84.74
